sensor_id;sensor_type;location;lat;lon;timestamp;pressure;altitude;pressure_sealevel;temperature;humidity
44992;BME280;56865;51.618;7.406;2023-07-31T00:00:20;100302.88;;;26.55;100.00
44992;BME280;56865;51.618;7.406;2023-07-31T00:02:51;100296.56;;;26.59;100.00
44992;BME280;56865;51.618;7.406;2023-07-31T00:05:22;100298.19;;;26.62;100.00
44992;BME280;56865;51.618;7.406;2023-07-31T00:07:54;100297.47;;;26.58;100.00
44992;BME280;56865;51.618;7.406;2023-07-31T00:10:24;100302.00;;;26.55;100.00
44992;BME280;56865;51.618;7.406;2023-07-31T00:12:53;100291.25;;;26.61;100.00
44992;BME280;56865;51.618;7.406;2023-07-31T00:15:23;100284.91;;;26.67;100.00
44992;BME280;56865;51.618;7.406;2023-07-31T00:17:52;100288.72;;;26.59;100.00
44992;BME280;56865;51.618;7.406;2023-07-31T00:20:22;100283.41;;;26.61;100.00
44992;BME280;56865;51.618;7.406;2023-07-31T00:22:55;100284.91;;;26.67;100.00
44992;BME280;56865;51.618;7.406;2023-07-31T00:25:24;100276.56;;;26.58;100.00
44992;BME280;56865;51.618;7.406;2023-07-31T00:27:54;100281.00;;;26.56;100.00
44992;BME280;56865;51.618;7.406;2023-07-31T00:30:24;100270.78;;;26.52;100.00
44992;BME280;56865;51.618;7.406;2023-07-31T00:32:54;100273.03;;;26.59;100.00
44992;BME280;56865;51.618;7.406;2023-07-31T00:35:24;100269.63;;;26.57;100.00
44992;BME280;56865;51.618;7.406;2023-07-31T00:37:57;100269.78;;;26.54;100.00
44992;BME280;56865;51.618;7.406;2023-07-31T00:40:27;100265.13;;;26.61;100.00
44992;BME280;56865;51.618;7.406;2023-07-31T00:42:57;100262.69;;;26.37;100.00
44992;BME280;56865;51.618;7.406;2023-07-31T00:45:29;100267.09;;;26.56;100.00
44992;BME280;56865;51.618;7.406;2023-07-31T00:47:59;100261.72;;;26.59;100.00
44992;BME280;56865;51.618;7.406;2023-07-31T00:50:28;100260.88;;;26.58;100.00
44992;BME280;56865;51.618;7.406;2023-07-31T00:53:01;100256.56;;;26.57;100.00
44992;BME280;56865;51.618;7.406;2023-07-31T00:55:31;100248.44;;;26.64;100.00
44992;BME280;56865;51.618;7.406;2023-07-31T00:58:00;100262.72;;;26.56;100.00
44992;BME280;56865;51.618;7.406;2023-07-31T01:00:30;100241.59;;;26.42;100.00
44992;BME280;56865;51.618;7.406;2023-07-31T01:03:00;100247.19;;;26.53;100.00
44992;BME280;56865;51.618;7.406;2023-07-31T01:05:32;100247.03;;;26.56;100.00
44992;BME280;56865;51.618;7.406;2023-07-31T01:08:07;100249.31;;;26.64;100.00
44992;BME280;56865;51.618;7.406;2023-07-31T01:10:41;100236.72;;;26.53;100.00
44992;BME280;56865;51.618;7.406;2023-07-31T01:13:12;100241.44;;;26.26;100.00
44992;BME280;56865;51.618;7.406;2023-07-31T01:15:42;100243.28;;;26.62;100.00
44992;BME280;56865;51.618;7.406;2023-07-31T01:18:11;100224.69;;;26.68;100.00
44992;BME280;56865;51.618;7.406;2023-07-31T01:20:41;100238.06;;;26.62;100.00
44992;BME280;56865;51.618;7.406;2023-07-31T01:26:10;100231.00;;;26.64;100.00
44992;BME280;56865;51.618;7.406;2023-07-31T01:28:44;100227.81;;;26.38;100.00
44992;BME280;56865;51.618;7.406;2023-07-31T01:31:16;100230.34;;;26.21;100.00
44992;BME280;56865;51.618;7.406;2023-07-31T01:33:47;100232.63;;;26.67;100.00
44992;BME280;56865;51.618;7.406;2023-07-31T01:36:17;100234.56;;;26.61;100.00
44992;BME280;56865;51.618;7.406;2023-07-31T01:38:47;100239.59;;;26.66;100.00
44992;BME280;56865;51.618;7.406;2023-07-31T01:41:19;100249.34;;;26.63;100.00
44992;BME280;56865;51.618;7.406;2023-07-31T01:43:49;100243.09;;;26.67;100.00
44992;BME280;56865;51.618;7.406;2023-07-31T01:46:18;100231.50;;;26.53;100.00
44992;BME280;56865;51.618;7.406;2023-07-31T01:48:48;100224.28;;;26.58;100.00
44992;BME280;56865;51.618;7.406;2023-07-31T01:51:18;100215.31;;;26.83;100.00
44992;BME280;56865;51.618;7.406;2023-07-31T01:53:47;100217.44;;;26.75;100.00
44992;BME280;56865;51.618;7.406;2023-07-31T01:56:20;100220.69;;;26.80;100.00
44992;BME280;56865;51.618;7.406;2023-07-31T01:58:49;100219.63;;;26.84;100.00
44992;BME280;56865;51.618;7.406;2023-07-31T02:01:19;100214.41;;;26.84;100.00
44992;BME280;56865;51.618;7.406;2023-07-31T02:03:49;100226.47;;;26.30;100.00
44992;BME280;56865;51.618;7.406;2023-07-31T02:06:21;100224.09;;;26.04;100.00
44992;BME280;56865;51.618;7.406;2023-07-31T02:08:51;100226.94;;;26.19;100.00
44992;BME280;56865;51.618;7.406;2023-07-31T02:24:53;100213.47;;;25.88;100.00
44992;BME280;56865;51.618;7.406;2023-07-31T02:27:23;100214.75;;;25.99;100.00
44992;BME280;56865;51.618;7.406;2023-07-31T02:29:54;100211.38;;;25.76;100.00
44992;BME280;56865;51.618;7.406;2023-07-31T02:32:25;100219.22;;;25.96;100.00
44992;BME280;56865;51.618;7.406;2023-07-31T02:34:55;100208.47;;;25.84;100.00
44992;BME280;56865;51.618;7.406;2023-07-31T02:37:25;100216.94;;;25.68;100.00
44992;BME280;56865;51.618;7.406;2023-07-31T02:39:58;100207.59;;;25.83;100.00
44992;BME280;56865;51.618;7.406;2023-07-31T02:42:27;100213.91;;;25.98;100.00
44992;BME280;56865;51.618;7.406;2023-07-31T02:44:57;100212.50;;;25.70;100.00
44992;BME280;56865;51.618;7.406;2023-07-31T02:47:26;100203.97;;;25.67;100.00
44992;BME280;56865;51.618;7.406;2023-07-31T02:49:56;100199.00;;;25.81;100.00
44992;BME280;56865;51.618;7.406;2023-07-31T02:52:26;100202.44;;;25.82;100.00
44992;BME280;56865;51.618;7.406;2023-07-31T02:54:59;100206.25;;;25.93;100.00
44992;BME280;56865;51.618;7.406;2023-07-31T02:57:29;100200.47;;;25.87;100.00
44992;BME280;56865;51.618;7.406;2023-07-31T02:59:59;100202.09;;;25.89;100.00
44992;BME280;56865;51.618;7.406;2023-07-31T03:02:32;100187.69;;;25.80;100.00
44992;BME280;56865;51.618;7.406;2023-07-31T03:05:02;100194.91;;;25.94;100.00
44992;BME280;56865;51.618;7.406;2023-07-31T03:07:32;100190.66;;;25.92;100.00
44992;BME280;56865;51.618;7.406;2023-07-31T03:10:05;100193.63;;;25.84;100.00
44992;BME280;56865;51.618;7.406;2023-07-31T03:12:34;100190.19;;;25.63;100.00
44992;BME280;56865;51.618;7.406;2023-07-31T03:15:04;100186.22;;;25.75;100.00
44992;BME280;56865;51.618;7.406;2023-07-31T03:17:34;100195.03;;;25.72;100.00
44992;BME280;56865;51.618;7.406;2023-07-31T03:20:04;100185.50;;;25.71;100.00
44992;BME280;56865;51.618;7.406;2023-07-31T03:22:35;100185.63;;;25.68;100.00
44992;BME280;56865;51.618;7.406;2023-07-31T03:25:09;100183.16;;;25.65;100.00
44992;BME280;56865;51.618;7.406;2023-07-31T03:27:39;100200.28;;;25.71;100.00
44992;BME280;56865;51.618;7.406;2023-07-31T03:30:09;100190.09;;;25.85;100.00
44992;BME280;56865;51.618;7.406;2023-07-31T03:32:39;100206.38;;;25.71;100.00
44992;BME280;56865;51.618;7.406;2023-07-31T03:35:08;100190.09;;;25.64;100.00
44992;BME280;56865;51.618;7.406;2023-07-31T03:37:38;100197.63;;;25.72;100.00
44992;BME280;56865;51.618;7.406;2023-07-31T03:40:11;100204.09;;;25.63;100.00
44992;BME280;56865;51.618;7.406;2023-07-31T03:42:41;100196.28;;;25.63;100.00
44992;BME280;56865;51.618;7.406;2023-07-31T03:45:10;100192.34;;;25.74;100.00
44992;BME280;56865;51.618;7.406;2023-07-31T03:47:40;100201.38;;;25.46;100.00
44992;BME280;56865;51.618;7.406;2023-07-31T03:50:10;100192.97;;;25.17;100.00
44992;BME280;56865;51.618;7.406;2023-07-31T03:52:40;100185.88;;;25.62;100.00
44992;BME280;56865;51.618;7.406;2023-07-31T03:55:13;100183.59;;;25.54;100.00
44992;BME280;56865;51.618;7.406;2023-07-31T03:57:43;100187.00;;;25.56;100.00
44992;BME280;56865;51.618;7.406;2023-07-31T04:00:13;100182.63;;;25.57;100.00
44992;BME280;56865;51.618;7.406;2023-07-31T04:02:43;100180.66;;;25.62;100.00
44992;BME280;56865;51.618;7.406;2023-07-31T04:05:13;100185.16;;;25.58;100.00
44992;BME280;56865;51.618;7.406;2023-07-31T04:07:43;100186.13;;;25.56;100.00
44992;BME280;56865;51.618;7.406;2023-07-31T04:10:15;100183.41;;;25.38;100.00
44992;BME280;56865;51.618;7.406;2023-07-31T04:12:45;100186.84;;;25.59;100.00
44992;BME280;56865;51.618;7.406;2023-07-31T04:15:14;100185.03;;;25.61;100.00
44992;BME280;56865;51.618;7.406;2023-07-31T04:17:44;100180.22;;;25.52;100.00
44992;BME280;56865;51.618;7.406;2023-07-31T04:20:17;100177.84;;;25.67;100.00
44992;BME280;56865;51.618;7.406;2023-07-31T04:22:46;100181.00;;;25.75;100.00
44992;BME280;56865;51.618;7.406;2023-07-31T04:25:19;100171.47;;;25.74;100.00
44992;BME280;56865;51.618;7.406;2023-07-31T04:27:51;100174.81;;;25.76;100.00
44992;BME280;56865;51.618;7.406;2023-07-31T04:30:20;100172.47;;;25.70;100.00
44992;BME280;56865;51.618;7.406;2023-07-31T04:32:50;100172.47;;;25.70;100.00
44992;BME280;56865;51.618;7.406;2023-07-31T04:35:20;100166.31;;;25.52;100.00
44992;BME280;56865;51.618;7.406;2023-07-31T04:37:49;100169.88;;;25.70;100.00
44992;BME280;56865;51.618;7.406;2023-07-31T04:40:22;100166.88;;;25.79;100.00
44992;BME280;56865;51.618;7.406;2023-07-31T04:42:52;100159.59;;;25.67;100.00
44992;BME280;56865;51.618;7.406;2023-07-31T04:45:21;100162.03;;;25.70;100.00
44992;BME280;56865;51.618;7.406;2023-07-31T04:47:51;100168.06;;;25.72;100.00
44992;BME280;56865;51.618;7.406;2023-07-31T04:50:21;100154.88;;;25.75;100.00
44992;BME280;56865;51.618;7.406;2023-07-31T04:52:51;100162.38;;;25.62;100.00
44992;BME280;56865;51.618;7.406;2023-07-31T04:55:23;100161.00;;;25.74;100.00
44992;BME280;56865;51.618;7.406;2023-07-31T04:57:52;100164.59;;;25.71;100.00
44992;BME280;56865;51.618;7.406;2023-07-31T05:00:22;100165.25;;;25.35;100.00
44992;BME280;56865;51.618;7.406;2023-07-31T05:02:52;100163.75;;;25.71;100.00
44992;BME280;56865;51.618;7.406;2023-07-31T05:05:22;100159.16;;;25.76;100.00
44992;BME280;56865;51.618;7.406;2023-07-31T05:07:52;100159.50;;;25.89;100.00
44992;BME280;56865;51.618;7.406;2023-07-31T05:10:24;100156.59;;;25.95;100.00
44992;BME280;56865;51.618;7.406;2023-07-31T05:12:54;100153.41;;;25.88;100.00
44992;BME280;56865;51.618;7.406;2023-07-31T05:15:23;100153.19;;;25.74;100.00
44992;BME280;56865;51.618;7.406;2023-07-31T05:17:53;100152.94;;;25.99;100.00
44992;BME280;56865;51.618;7.406;2023-07-31T05:20:23;100152.59;;;26.07;100.00
44992;BME280;56865;51.618;7.406;2023-07-31T05:22:54;100150.88;;;25.87;100.00
44992;BME280;56865;51.618;7.406;2023-07-31T05:25:26;100149.69;;;25.94;100.00
44992;BME280;56865;51.618;7.406;2023-07-31T05:27:56;100150.38;;;25.98;100.00
44992;BME280;56865;51.618;7.406;2023-07-31T05:30:25;100136.81;;;25.70;100.00
44992;BME280;56865;51.618;7.406;2023-07-31T05:32:55;100140.00;;;25.96;100.00
44992;BME280;56865;51.618;7.406;2023-07-31T05:35:25;100135.13;;;25.88;100.00
44992;BME280;56865;51.618;7.406;2023-07-31T05:37:54;100132.16;;;25.96;100.00
44992;BME280;56865;51.618;7.406;2023-07-31T05:40:27;100128.50;;;26.00;100.00
44992;BME280;56865;51.618;7.406;2023-07-31T05:42:57;100129.41;;;25.99;100.00
44992;BME280;56865;51.618;7.406;2023-07-31T05:45:26;100125.41;;;26.11;100.00
44992;BME280;56865;51.618;7.406;2023-07-31T05:47:56;100125.94;;;25.99;100.00
44992;BME280;56865;51.618;7.406;2023-07-31T05:50:25;100121.09;;;26.10;100.00
44992;BME280;56865;51.618;7.406;2023-07-31T05:52:55;100115.56;;;25.78;100.00
44992;BME280;56865;51.618;7.406;2023-07-31T05:55:28;100106.63;;;26.03;100.00
44992;BME280;56865;51.618;7.406;2023-07-31T05:57:57;100110.66;;;26.10;100.00
44992;BME280;56865;51.618;7.406;2023-07-31T06:00:27;100105.75;;;25.83;100.00
44992;BME280;56865;51.618;7.406;2023-07-31T06:02:57;100098.72;;;26.04;100.00
44992;BME280;56865;51.618;7.406;2023-07-31T06:05:26;100103.19;;;26.21;100.00
44992;BME280;56865;51.618;7.406;2023-07-31T06:07:56;100106.47;;;26.25;100.00
44992;BME280;56865;51.618;7.406;2023-07-31T06:10:29;100086.72;;;26.19;100.00
44992;BME280;56865;51.618;7.406;2023-07-31T06:12:58;100100.69;;;26.18;100.00
44992;BME280;56865;51.618;7.406;2023-07-31T06:15:28;100087.63;;;25.80;100.00
44992;BME280;56865;51.618;7.406;2023-07-31T06:17:58;100092.94;;;26.17;100.00
44992;BME280;56865;51.618;7.406;2023-07-31T06:20:28;100096.25;;;26.20;100.00
44992;BME280;56865;51.618;7.406;2023-07-31T06:22:58;100089.72;;;26.11;100.00
44992;BME280;56865;51.618;7.406;2023-07-31T06:25:30;100082.13;;;26.24;100.00
44992;BME280;56865;51.618;7.406;2023-07-31T06:28:00;100080.88;;;26.14;100.00
44992;BME280;56865;51.618;7.406;2023-07-31T06:30:30;100085.22;;;26.14;100.00
44992;BME280;56865;51.618;7.406;2023-07-31T06:32:59;100086.28;;;26.28;100.00
44992;BME280;56865;51.618;7.406;2023-07-31T06:35:29;100085.56;;;26.25;100.00
44992;BME280;56865;51.618;7.406;2023-07-31T06:37:59;100096.47;;;26.52;100.00
44992;BME280;56865;51.618;7.406;2023-07-31T06:40:31;100098.09;;;26.18;100.00
44992;BME280;56865;51.618;7.406;2023-07-31T06:43:01;100089.25;;;26.21;100.00
44992;BME280;56865;51.618;7.406;2023-07-31T06:45:34;100096.09;;;26.23;100.00
44992;BME280;56865;51.618;7.406;2023-07-31T06:48:04;100086.44;;;26.25;100.00
44992;BME280;56865;51.618;7.406;2023-07-31T06:50:34;100093.19;;;26.30;100.00
44992;BME280;56865;51.618;7.406;2023-07-31T06:53:04;100088.81;;;26.30;100.00
44992;BME280;56865;51.618;7.406;2023-07-31T06:55:36;100087.69;;;26.36;100.00
44992;BME280;56865;51.618;7.406;2023-07-31T06:58:06;100083.00;;;26.06;100.00
44992;BME280;56865;51.618;7.406;2023-07-31T07:00:36;100080.31;;;26.26;100.00
44992;BME280;56865;51.618;7.406;2023-07-31T07:03:05;100081.75;;;26.32;100.00
44992;BME280;56865;51.618;7.406;2023-07-31T07:05:35;100081.88;;;26.48;100.00
44992;BME280;56865;51.618;7.406;2023-07-31T07:08:05;100083.88;;;26.43;100.00
44992;BME280;56865;51.618;7.406;2023-07-31T07:10:37;100076.09;;;26.41;100.00
44992;BME280;56865;51.618;7.406;2023-07-31T07:13:07;100075.00;;;26.28;100.00
44992;BME280;56865;51.618;7.406;2023-07-31T07:15:36;100073.69;;;26.37;100.00
44992;BME280;56865;51.618;7.406;2023-07-31T07:18:06;100077.84;;;26.41;100.00
44992;BME280;56865;51.618;7.406;2023-07-31T07:20:39;100075.53;;;26.35;100.00
44992;BME280;56865;51.618;7.406;2023-07-31T07:23:09;100075.78;;;26.48;100.00
44992;BME280;56865;51.618;7.406;2023-07-31T07:25:42;100069.56;;;26.50;100.00
44992;BME280;56865;51.618;7.406;2023-07-31T07:28:12;100078.47;;;26.46;100.00
44992;BME280;56865;51.618;7.406;2023-07-31T07:30:42;100065.00;;;26.36;100.00
44992;BME280;56865;51.618;7.406;2023-07-31T07:33:12;100060.63;;;26.37;100.00
44992;BME280;56865;51.618;7.406;2023-07-31T07:35:41;100064.13;;;26.18;100.00
44992;BME280;56865;51.618;7.406;2023-07-31T07:38:13;100064.91;;;26.20;100.00
44992;BME280;56865;51.618;7.406;2023-07-31T07:40:46;100072.00;;;26.36;100.00
44992;BME280;56865;51.618;7.406;2023-07-31T07:43:20;100063.34;;;26.35;100.00
44992;BME280;56865;51.618;7.406;2023-07-31T07:45:49;100071.53;;;26.45;100.00
44992;BME280;56865;51.618;7.406;2023-07-31T07:48:19;100061.88;;;25.91;100.00
44992;BME280;56865;51.618;7.406;2023-07-31T07:50:50;100067.38;;;26.23;100.00
44992;BME280;56865;51.618;7.406;2023-07-31T07:53:19;100062.22;;;26.22;100.00
44992;BME280;56865;51.618;7.406;2023-07-31T07:55:52;100055.22;;;26.22;100.00
44992;BME280;56865;51.618;7.406;2023-07-31T07:58:21;100065.38;;;26.28;100.00
44992;BME280;56865;51.618;7.406;2023-07-31T08:00:51;100062.22;;;26.22;100.00
44992;BME280;56865;51.618;7.406;2023-07-31T08:03:21;100056.91;;;26.23;100.00
44992;BME280;56865;51.618;7.406;2023-07-31T08:05:51;100062.63;;;26.32;100.00
44992;BME280;56865;51.618;7.406;2023-07-31T08:08:21;100061.59;;;26.17;100.00
44992;BME280;56865;51.618;7.406;2023-07-31T08:10:53;100059.19;;;26.12;100.00
44992;BME280;56865;51.618;7.406;2023-07-31T08:13:22;100054.25;;;26.06;100.00
44992;BME280;56865;51.618;7.406;2023-07-31T08:15:52;100035.56;;;26.15;100.00
44992;BME280;56865;51.618;7.406;2023-07-31T08:18:42;100041.75;;;25.93;100.00
44992;BME280;56865;51.618;7.406;2023-07-31T08:21:13;100047.81;;;26.50;100.00
44992;BME280;56865;51.618;7.406;2023-07-31T08:23:43;100040.66;;;26.36;100.00
44992;BME280;56865;51.618;7.406;2023-07-31T08:26:17;100044.13;;;26.17;100.00
44992;BME280;56865;51.618;7.406;2023-07-31T08:28:48;100036.75;;;26.62;100.00
44992;BME280;56865;51.618;7.406;2023-07-31T08:31:18;100035.97;;;26.42;100.00
44992;BME280;56865;51.618;7.406;2023-07-31T08:33:48;100042.13;;;26.59;100.00
44992;BME280;56865;51.618;7.406;2023-07-31T08:36:18;100029.13;;;26.57;100.00
44992;BME280;56865;51.618;7.406;2023-07-31T08:38:49;100030.28;;;26.52;100.00
44992;BME280;56865;51.618;7.406;2023-07-31T08:41:27;100030.91;;;26.39;100.00
44992;BME280;56865;51.618;7.406;2023-07-31T08:43:57;100025.75;;;26.55;100.00
44992;BME280;56865;51.618;7.406;2023-07-31T08:46:31;100029.72;;;26.45;100.00
44992;BME280;56865;51.618;7.406;2023-07-31T08:49:02;100022.28;;;26.37;100.00
44992;BME280;56865;51.618;7.406;2023-07-31T08:51:35;100023.63;;;25.90;100.00
44992;BME280;56865;51.618;7.406;2023-07-31T08:54:08;100029.97;;;26.40;100.00
44992;BME280;56865;51.618;7.406;2023-07-31T08:56:42;100026.75;;;26.35;100.00
44992;BME280;56865;51.618;7.406;2023-07-31T08:59:21;100029.06;;;26.41;100.00
44992;BME280;56865;51.618;7.406;2023-07-31T09:01:53;100035.13;;;26.05;100.00
44992;BME280;56865;51.618;7.406;2023-07-31T09:04:30;100032.03;;;26.51;100.00
44992;BME280;56865;51.618;7.406;2023-07-31T09:07:02;100028.19;;;26.41;100.00
44992;BME280;56865;51.618;7.406;2023-07-31T09:09:36;100033.50;;;26.03;100.00
44992;BME280;56865;51.618;7.406;2023-07-31T09:12:10;100027.06;;;26.47;100.00
44992;BME280;56865;51.618;7.406;2023-07-31T09:14:52;100033.28;;;26.44;100.00
44992;BME280;56865;51.618;7.406;2023-07-31T09:17:28;100018.50;;;26.25;100.00
44992;BME280;56865;51.618;7.406;2023-07-31T09:20:12;100023.44;;;26.32;100.00
44992;BME280;56865;51.618;7.406;2023-07-31T09:22:49;100020.88;;;26.48;100.00
44992;BME280;56865;51.618;7.406;2023-07-31T09:25:29;100029.72;;;26.27;100.00
44992;BME280;56865;51.618;7.406;2023-07-31T09:28:05;100033.88;;;26.32;100.00
44992;BME280;56865;51.618;7.406;2023-07-31T09:30:46;100022.03;;;26.24;100.00
44992;BME280;56865;51.618;7.406;2023-07-31T09:33:17;100022.88;;;26.25;100.00
44992;BME280;56865;51.618;7.406;2023-07-31T09:35:49;100027.59;;;26.53;100.00
44992;BME280;56865;51.618;7.406;2023-07-31T09:38:40;100021.66;;;26.32;100.00
44992;BME280;56865;51.618;7.406;2023-07-31T09:41:12;100029.03;;;26.24;100.00
44992;BME280;56865;51.618;7.406;2023-07-31T09:43:56;100018.81;;;26.37;100.00
44992;BME280;56865;51.618;7.406;2023-07-31T09:46:27;100019.56;;;26.39;100.00
44992;BME280;56865;51.618;7.406;2023-07-31T09:49:08;100011.59;;;26.24;100.00
44992;BME280;56865;51.618;7.406;2023-07-31T09:51:40;100006.59;;;26.37;100.00
44992;BME280;56865;51.618;7.406;2023-07-31T09:54:12;100003.53;;;26.47;100.00
44992;BME280;56865;51.618;7.406;2023-07-31T09:56:50;100008.53;;;26.51;100.00
44992;BME280;56865;51.618;7.406;2023-07-31T09:59:28;100000.63;;;26.53;100.00
44992;BME280;56865;51.618;7.406;2023-07-31T10:01:59;100007.16;;;26.07;100.00
44992;BME280;56865;51.618;7.406;2023-07-31T10:04:41;99994.38;;;26.20;100.00
44992;BME280;56865;51.618;7.406;2023-07-31T10:07:21;100005.91;;;26.34;100.00
44992;BME280;56865;51.618;7.406;2023-07-31T10:09:53;100002.69;;;26.46;100.00
44992;BME280;56865;51.618;7.406;2023-07-31T10:12:23;100005.19;;;26.30;100.00
44992;BME280;56865;51.618;7.406;2023-07-31T10:15:01;99998.75;;;26.01;100.00
44992;BME280;56865;51.618;7.406;2023-07-31T10:17:32;100000.25;;;25.87;100.00
44992;BME280;56865;51.618;7.406;2023-07-31T10:20:07;99991.78;;;25.82;100.00
44992;BME280;56865;51.618;7.406;2023-07-31T10:22:39;100000.09;;;26.09;100.00
44992;BME280;56865;51.618;7.406;2023-07-31T10:25:12;99991.31;;;26.47;100.00
44992;BME280;56865;51.618;7.406;2023-07-31T10:27:46;100000.03;;;26.11;100.00
44992;BME280;56865;51.618;7.406;2023-07-31T10:30:22;99999.84;;;26.33;100.00
44992;BME280;56865;51.618;7.406;2023-07-31T10:32:59;99985.25;;;26.47;100.00
44992;BME280;56865;51.618;7.406;2023-07-31T10:35:41;99997.75;;;26.03;100.00
44992;BME280;56865;51.618;7.406;2023-07-31T10:38:12;99987.81;;;26.11;100.00
44992;BME280;56865;51.618;7.406;2023-07-31T10:40:46;99987.59;;;26.51;100.00
44992;BME280;56865;51.618;7.406;2023-07-31T10:43:23;99982.69;;;26.27;100.00
44992;BME280;56865;51.618;7.406;2023-07-31T10:46:00;99986.47;;;26.39;100.00
44992;BME280;56865;51.618;7.406;2023-07-31T10:48:39;99992.31;;;26.44;100.00
44992;BME280;56865;51.618;7.406;2023-07-31T10:51:10;99992.00;;;26.33;100.00
44992;BME280;56865;51.618;7.406;2023-07-31T10:53:42;99980.00;;;26.29;100.00
44992;BME280;56865;51.618;7.406;2023-07-31T10:56:14;99985.59;;;26.56;100.00
44992;BME280;56865;51.618;7.406;2023-07-31T10:59:00;99992.22;;;26.64;100.00
44992;BME280;56865;51.618;7.406;2023-07-31T11:04:29;99992.53;;;26.57;100.00
44992;BME280;56865;51.618;7.406;2023-07-31T11:07:00;99987.59;;;26.51;100.00
44992;BME280;56865;51.618;7.406;2023-07-31T11:09:44;99988.56;;;26.33;100.00
44992;BME280;56865;51.618;7.406;2023-07-31T11:12:17;99985.28;;;26.63;100.00
44992;BME280;56865;51.618;7.406;2023-07-31T11:14:53;99989.06;;;26.39;100.00
44992;BME280;56865;51.618;7.406;2023-07-31T11:17:34;99989.84;;;26.24;100.00
44992;BME280;56865;51.618;7.406;2023-07-31T11:20:45;99990.91;;;26.55;100.00
44992;BME280;56865;51.618;7.406;2023-07-31T11:43:34;99974.84;;;26.80;100.00
44992;BME280;56865;51.618;7.406;2023-07-31T11:46:22;99972.09;;;26.83;100.00
44992;BME280;56865;51.618;7.406;2023-07-31T16:41:35;99738.41;;;27.31;100.00
44992;BME280;56865;51.618;7.406;2023-07-31T16:44:19;99732.75;;;27.38;100.00
44992;BME280;56865;51.618;7.406;2023-07-31T16:47:12;99736.66;;;27.31;100.00
44992;BME280;56865;51.618;7.406;2023-07-31T16:53:04;99728.59;;;27.04;100.00
44992;BME280;56865;51.618;7.406;2023-07-31T16:56:14;99719.25;;;27.46;100.00
44992;BME280;56865;51.618;7.406;2023-07-31T16:58:44;99711.41;;;27.46;100.00
44992;BME280;56865;51.618;7.406;2023-07-31T17:01:26;99706.75;;;27.35;100.00
44992;BME280;56865;51.618;7.406;2023-07-31T17:03:58;99716.13;;;27.39;100.00
44992;BME280;56865;51.618;7.406;2023-07-31T17:06:29;99704.00;;;27.53;100.00
44992;BME280;56865;51.618;7.406;2023-07-31T17:08:59;99703.91;;;27.54;100.00
44992;BME280;56865;51.618;7.406;2023-07-31T17:11:31;99705.97;;;27.49;100.00
44992;BME280;56865;51.618;7.406;2023-07-31T17:14:01;99703.34;;;27.49;100.00
44992;BME280;56865;51.618;7.406;2023-07-31T17:16:34;99699.53;;;27.55;100.00
44992;BME280;56865;51.618;7.406;2023-07-31T17:19:04;99698.88;;;27.51;100.00
44992;BME280;56865;51.618;7.406;2023-07-31T17:21:34;99689.38;;;27.65;100.00
44992;BME280;56865;51.618;7.406;2023-07-31T17:24:04;99688.72;;;27.76;100.00
44992;BME280;56865;51.618;7.406;2023-07-31T17:26:36;99681.13;;;27.71;100.00
44992;BME280;56865;51.618;7.406;2023-07-31T17:29:06;99674.84;;;27.59;100.00
44992;BME280;56865;51.618;7.406;2023-07-31T17:31:35;99674.38;;;27.52;100.00
44992;BME280;56865;51.618;7.406;2023-07-31T17:34:08;99663.81;;;27.54;100.00
44992;BME280;56865;51.618;7.406;2023-07-31T17:36:37;99666.91;;;27.46;100.00
44992;BME280;56865;51.618;7.406;2023-07-31T17:39:07;99655.94;;;27.39;100.00
44992;BME280;56865;51.618;7.406;2023-07-31T17:41:40;99651.38;;;27.57;100.00
44992;BME280;56865;51.618;7.406;2023-07-31T17:44:09;99645.97;;;27.16;100.00
44992;BME280;56865;51.618;7.406;2023-07-31T17:46:39;99644.69;;;27.37;100.00
44992;BME280;56865;51.618;7.406;2023-07-31T17:49:09;99651.78;;;27.35;100.00
44992;BME280;56865;51.618;7.406;2023-07-31T17:51:39;99651.88;;;27.34;100.00
44992;BME280;56865;51.618;7.406;2023-07-31T17:54:08;99643.09;;;27.35;100.00
44992;BME280;56865;51.618;7.406;2023-07-31T17:56:42;99638.81;;;27.34;100.00
44992;BME280;56865;51.618;7.406;2023-07-31T17:59:11;99635.84;;;27.40;100.00
44992;BME280;56865;51.618;7.406;2023-07-31T18:01:42;99633.66;;;27.32;100.00
44992;BME280;56865;51.618;7.406;2023-07-31T18:04:11;99646.34;;;27.24;100.00
44992;BME280;56865;51.618;7.406;2023-07-31T18:06:41;99637.72;;;26.77;100.00
44992;BME280;56865;51.618;7.406;2023-07-31T18:09:19;99634.28;;;27.07;100.00
44992;BME280;56865;51.618;7.406;2023-07-31T18:12:07;99641.34;;;27.05;100.00
44992;BME280;56865;51.618;7.406;2023-07-31T18:14:37;99641.50;;;27.02;100.00
44992;BME280;56865;51.618;7.406;2023-07-31T18:17:13;99638.38;;;26.65;100.00
44992;BME280;56865;51.618;7.406;2023-07-31T18:22:34;99622.47;;;27.00;100.00
44992;BME280;56865;51.618;7.406;2023-07-31T18:25:37;99616.16;;;27.18;100.00
44992;BME280;56865;51.618;7.406;2023-07-31T18:29:01;99616.09;;;26.89;100.00
44992;BME280;56865;51.618;7.406;2023-07-31T18:34:39;99619.66;;;27.03;100.00
44992;BME280;56865;51.618;7.406;2023-07-31T18:37:11;99605.84;;;27.01;100.00
44992;BME280;56865;51.618;7.406;2023-07-31T18:39:44;99603.75;;;26.91;100.00
44992;BME280;56865;51.618;7.406;2023-07-31T18:42:18;99604.28;;;26.82;100.00
44992;BME280;56865;51.618;7.406;2023-07-31T18:44:51;99594.00;;;26.79;100.00
44992;BME280;56865;51.618;7.406;2023-07-31T18:47:24;99591.78;;;26.87;100.00
44992;BME280;56865;51.618;7.406;2023-07-31T18:49:54;99585.78;;;26.85;100.00